Greenview, CA (96037)

7:47 AM PST on February 08, 2016 (GMT -0800)
KCAETNA3 | | Change Station
CLOSE
Current Station
Personal Weather Station
Location: Island Rd, Scott Valley, CA
Elevation: 2728 ft
Nearby Weather Stations

Elev 2728 ft 41.55 °N, 122.85 °W | Updated 54 seconds ago

Partly Cloudy
Partly Cloudy
33.4 °F
Feels Like 33 °F
N
0.0
Wind Variable Wind from NNW
Gusts 0.0 mph

Today
High -- | Low -- °F
--% Chance of Precip.
Yesterday
High -- | Low -- °F
Precip. -- in
Pressure 30.48 in
Visibility 0.2 miles
Clouds
Windchill 33 °F
Dew Point 33 °F
Humidity 100%
Rainfall 0.00 in
Snow Depth Not available.
7:16 AM 5:36 PM
New Moon, 0% visible
SPECI KSIY 081522Z AUTO 20003KT M1/4SM FZFG VV001 M02/M03 A3048 RMK AO2 T10171028 TSNO
Pressure 30.48 in
Visibility 0.2 miles
Clouds
Windchill 33 °F
Dew Point 33 °F
Humidity 100%
Rainfall 0.00 in
Snow Depth Not available.
7:16 AM 5:36 PM
New Moon, 0% visible
SPECI KSIY 081522Z AUTO 20003KT M1/4SM FZFG VV001 M02/M03 A3048 RMK AO2 T10171028 TSNO

10-Day Weather Forecast

Almanac

Astronomy

Feb. 08, 2016 Rise Set
Actual Time
Civil Twilight
Nautical Twilight
Astronomical Twilight
Moon
Length of Visible Light
Length of Day
Tomorrow will be .
, % of the Moon is Illuminated

Today's Extremes

State Highs State Lows

Community

WunderPhotos

Upload Photos

1,891,440 photos uploaded!

WunderBlog® & News

Nearby

Air Quality

  Air Quality AQ Index Pollutant
Not available.

Snow Depth

Station Depth Elevation

Earthquake Activity

City Distance Mag. Time & Date
Minimum magnitude displayed is 2.5.

Coastal Water Temperatures

Place Temperature

Stations

Nearby Weather Stations

Station Location Temp. Windchill Dew Point Humidity Wind Precip. Elev Updated Type
                   

Watches & Warnings

There are currently no watches in effect.